createdAt,value
2023-01-27T00:00:35.878Z,49.73
2023-01-27T00:03:02.994Z,50.02
2023-01-27T00:05:29.688Z,49.98
2023-01-27T00:07:56.410Z,49.05
2023-01-27T00:10:23.183Z,50.64
2023-01-27T00:12:49.830Z,51.14
2023-01-27T00:15:16.515Z,50.04
2023-01-27T00:17:43.156Z,50.11
2023-01-27T00:20:10.442Z,50.57
2023-01-27T00:22:37.251Z,50.32
2023-01-27T00:25:04.013Z,50.06
2023-01-27T00:27:30.653Z,50.61
2023-01-27T00:29:57.278Z,50.19
2023-01-27T00:32:23.922Z,50.32
2023-01-27T00:34:50.623Z,50.98
2023-01-27T00:37:17.285Z,50.59
2023-01-27T00:39:43.919Z,51.04
2023-01-27T00:42:10.581Z,51.68
2023-01-27T00:44:37.270Z,52.82
2023-01-27T00:47:03.935Z,53.62
2023-01-27T00:49:30.581Z,54.00
2023-01-27T00:51:57.237Z,54.29
2023-01-27T00:54:23.954Z,53.79
2023-01-27T00:56:50.604Z,53.64
2023-01-27T00:59:17.250Z,54.02
2023-01-27T01:01:43.970Z,53.15
2023-01-27T01:04:10.636Z,52.62
2023-01-27T01:06:37.273Z,53.24
2023-01-27T01:09:03.919Z,52.31
2023-01-27T01:11:30.563Z,52.95
2023-01-27T01:13:57.274Z,53.24
2023-01-27T01:16:24.093Z,53.38
2023-01-27T01:18:50.792Z,53.76
2023-01-27T01:21:17.441Z,52.57
2023-01-27T01:23:44.633Z,52.79
2023-01-27T01:26:11.855Z,53.62
2023-01-27T01:28:38.761Z,53.38
2023-01-27T01:31:06.818Z,52.97
2023-01-27T01:33:33.501Z,52.90
2023-01-27T01:36:07.475Z,52.98
2023-01-27T01:38:34.143Z,53.54
2023-01-27T01:41:00.876Z,53.90
2023-01-27T01:43:27.565Z,52.76
2023-01-27T01:45:55.461Z,52.83
2023-01-27T01:48:29.496Z,54.06
2023-01-27T01:51:15.875Z,53.59
2023-01-27T01:53:49.152Z,53.19
2023-01-27T01:56:18.101Z,53.03
2023-01-27T01:58:45.072Z,53.48
2023-01-27T02:01:12.013Z,53.86
2023-01-27T02:03:38.850Z,53.39
2023-01-27T02:06:05.604Z,52.75
2023-01-27T02:08:40.101Z,53.43
2023-01-27T02:11:07.919Z,55.13
2023-01-27T02:13:34.607Z,55.48
2023-01-27T02:16:01.254Z,55.12
2023-01-27T02:18:27.882Z,56.19
2023-01-27T02:20:54.549Z,55.13
2023-01-27T02:23:44.877Z,54.97
2023-01-27T02:26:18.043Z,55.35
2023-01-27T02:28:44.739Z,54.83
2023-01-27T02:31:11.529Z,54.69
2023-01-27T02:33:38.252Z,54.12
2023-01-27T02:36:11.962Z,53.65
2023-01-27T02:38:51.158Z,53.24
2023-01-27T02:41:23.596Z,53.37
2023-01-27T02:43:51.272Z,53.47
2023-01-27T02:46:18.087Z,52.92
2023-01-27T02:48:44.829Z,52.73
2023-01-27T02:51:11.579Z,53.95
2023-01-27T02:53:38.268Z,53.58
2023-01-27T02:56:05.273Z,54.13
2023-01-27T02:58:31.913Z,53.80
2023-01-27T03:00:58.731Z,54.06
2023-01-27T03:03:25.378Z,53.64
2023-01-27T03:05:52.024Z,52.37
2023-01-27T03:08:18.737Z,53.50
2023-01-27T03:10:45.367Z,53.41
2023-01-27T03:13:12.084Z,53.70
2023-01-27T03:15:38.747Z,54.47
2023-01-27T03:18:09.386Z,53.81
2023-01-27T03:20:36.028Z,54.26
2023-01-27T03:23:02.760Z,53.57
2023-01-27T03:25:29.430Z,54.50
2023-01-27T03:27:56.467Z,54.10
2023-01-27T03:30:23.116Z,54.18
2023-01-27T03:32:49.772Z,55.34
2023-01-27T03:35:16.559Z,55.84
2023-01-27T03:37:43.356Z,55.98
2023-01-27T03:40:10.313Z,56.11
2023-01-27T03:42:36.959Z,56.39
2023-01-27T03:45:03.608Z,56.62
2023-01-27T03:47:30.352Z,55.96
2023-01-27T03:49:57.052Z,55.96
2023-01-27T03:52:23.756Z,56.09
2023-01-27T03:54:50.395Z,55.44
2023-01-27T03:57:17.045Z,55.66
2023-01-27T03:59:43.699Z,55.29
2023-01-27T04:02:10.317Z,55.91
2023-01-27T04:04:36.957Z,55.74
2023-01-27T04:07:03.616Z,55.59
2023-01-27T04:09:34.253Z,55.11
2023-01-27T04:12:02.476Z,54.89
2023-01-27T04:14:31.094Z,54.94
2023-01-27T04:17:05.010Z,55.00
2023-01-27T04:19:31.669Z,55.05
2023-01-27T04:21:58.511Z,55.09
2023-01-27T04:24:25.232Z,55.30
2023-01-27T04:27:19.437Z,54.47
2023-01-27T04:29:46.085Z,54.78
2023-01-27T04:32:12.879Z,54.86
2023-01-27T04:34:39.676Z,55.58
2023-01-27T04:37:07.021Z,55.21
2023-01-27T04:39:33.919Z,56.53
2023-01-27T04:42:00.717Z,57.12
2023-01-27T04:44:27.370Z,57.42
2023-01-27T04:46:54.043Z,56.53
2023-01-27T04:49:20.711Z,56.09
2023-01-27T04:51:47.609Z,56.04
2023-01-27T04:54:14.444Z,56.50
2023-01-27T04:56:42.586Z,56.58
2023-01-27T04:59:11.492Z,56.24
2023-01-27T05:01:38.307Z,56.29
2023-01-27T05:04:05.214Z,56.92
2023-01-27T05:06:32.310Z,56.97
2023-01-27T05:08:59.160Z,57.57
2023-01-27T05:11:25.848Z,57.06
2023-01-27T05:13:52.535Z,57.75
2023-01-27T05:16:23.185Z,57.18
2023-01-27T05:18:50.907Z,56.44
2023-01-27T05:21:19.540Z,57.01
2023-01-27T05:23:46.384Z,57.47
2023-01-27T05:26:17.415Z,57.56
2023-01-27T05:28:45.086Z,57.89
2023-01-27T05:31:16.483Z,58.18
2023-01-27T05:33:43.232Z,57.98
2023-01-27T05:36:11.862Z,58.61
2023-01-27T05:38:38.519Z,58.17
2023-01-27T05:41:06.268Z,58.13
2023-01-27T05:43:34.405Z,57.23
2023-01-27T05:46:05.003Z,57.56
2023-01-27T05:48:31.750Z,57.17
2023-01-27T05:50:58.717Z,57.19
2023-01-27T05:53:25.514Z,57.86
2023-01-27T05:55:52.173Z,58.01
2023-01-27T05:58:19.179Z,57.88
2023-01-27T06:00:45.893Z,58.17
2023-01-27T06:03:12.864Z,58.48
2023-01-27T06:05:39.545Z,57.82
2023-01-27T06:08:06.199Z,58.44
2023-01-27T06:10:32.917Z,58.07
2023-01-27T06:12:59.554Z,58.41
2023-01-27T06:15:26.207Z,58.21
2023-01-27T06:17:52.987Z,57.88
2023-01-27T06:20:19.621Z,58.95
2023-01-27T06:22:46.246Z,58.37
2023-01-27T06:25:13.242Z,58.75
2023-01-27T06:27:41.258Z,59.04
2023-01-27T06:30:09.050Z,59.13
2023-01-27T06:32:36.413Z,58.49
2023-01-27T06:35:03.442Z,58.34
2023-01-27T06:37:30.169Z,58.23
2023-01-27T06:39:56.836Z,57.80
2023-01-27T06:42:23.490Z,57.85
2023-01-27T06:44:50.144Z,57.91
2023-01-27T06:47:16.802Z,57.86
2023-01-27T06:49:43.520Z,58.17
2023-01-27T06:52:10.258Z,57.83
2023-01-27T06:54:37.176Z,57.95
2023-01-27T06:57:03.806Z,58.29
2023-01-27T06:59:30.539Z,58.54
2023-01-27T07:01:57.177Z,57.34
2023-01-27T07:04:23.825Z,57.99
2023-01-27T07:06:50.479Z,58.59
2023-01-27T07:09:17.114Z,58.29
2023-01-27T07:11:43.752Z,58.62
2023-01-27T07:14:10.740Z,58.45
2023-01-27T07:16:37.428Z,58.56
2023-01-27T07:19:04.102Z,58.63
2023-01-27T07:21:30.760Z,58.86
2023-01-27T07:23:57.510Z,59.05
2023-01-27T07:26:25.300Z,58.93
2023-01-27T07:28:52.497Z,59.19
2023-01-27T07:31:19.352Z,58.63
2023-01-27T07:33:46.141Z,58.29
2023-01-27T07:36:12.876Z,58.00
2023-01-27T07:38:39.581Z,57.74
2023-01-27T07:41:06.706Z,57.77
2023-01-27T07:43:33.916Z,57.68
2023-01-27T07:46:00.660Z,57.84
2023-01-27T07:48:27.327Z,57.74
2023-01-27T07:50:53.989Z,57.27
2023-01-27T07:53:20.621Z,56.87
2023-01-27T07:55:47.308Z,57.12
2023-01-27T07:58:13.983Z,57.51
2023-01-27T08:00:40.639Z,57.58
2023-01-27T08:03:07.352Z,57.70
2023-01-27T08:05:34.446Z,57.40
2023-01-27T08:08:01.102Z,56.86
2023-01-27T08:10:27.816Z,56.97
2023-01-27T08:12:54.636Z,57.48
2023-01-27T08:15:21.678Z,56.33
2023-01-27T08:17:58.007Z,54.60
2023-01-27T08:20:25.701Z,51.57
2023-01-27T08:22:52.349Z,47.94
2023-01-27T08:25:19.046Z,43.53
2023-01-27T08:27:45.687Z,40.48
2023-01-27T08:30:12.754Z,39.19
2023-01-27T08:32:39.576Z,37.87
2023-01-27T08:35:06.252Z,35.90
2023-01-27T08:37:32.907Z,34.56
2023-01-27T08:39:59.670Z,32.08
2023-01-27T08:42:26.302Z,31.68
2023-01-27T08:44:52.941Z,31.13
2023-01-27T08:47:19.576Z,31.09
2023-01-27T08:49:46.247Z,30.34
2023-01-27T08:52:12.900Z,29.97
2023-01-27T08:54:39.605Z,29.29
2023-01-27T08:57:06.233Z,29.05
2023-01-27T08:59:32.986Z,31.27
2023-01-27T09:01:59.638Z,33.77
2023-01-27T09:04:26.427Z,34.43
2023-01-27T09:06:53.112Z,36.72
2023-01-27T09:09:19.732Z,37.23
2023-01-27T09:11:46.477Z,36.41
2023-01-27T09:14:13.124Z,37.45
2023-01-27T09:16:39.760Z,37.53
2023-01-27T09:19:06.428Z,37.07
2023-01-27T09:21:33.127Z,37.93
2023-01-27T09:23:59.828Z,38.21
2023-01-27T09:26:26.471Z,39.95
2023-01-27T09:28:53.150Z,41.33
2023-01-27T09:31:19.898Z,43.79
2023-01-27T09:33:46.653Z,44.14
2023-01-27T09:36:14.734Z,45.84
2023-01-27T09:38:56.284Z,46.63
2023-01-27T09:41:58.326Z,47.38
2023-01-27T09:44:49.689Z,47.90
2023-01-27T09:47:23.255Z,48.65
2023-01-27T09:49:58.904Z,48.18
2023-01-27T09:52:47.473Z,47.10
2023-01-27T09:55:24.809Z,46.16
2023-01-27T09:58:14.723Z,46.11
2023-01-27T10:00:46.430Z,47.75
2023-01-27T10:03:43.885Z,48.12
2023-01-27T10:06:21.443Z,47.57
2023-01-27T10:09:09.375Z,48.17
2023-01-27T10:11:52.378Z,48.31
2023-01-27T10:14:31.907Z,49.19
2023-01-27T10:17:03.032Z,48.06
2023-01-27T10:19:38.774Z,48.17
2023-01-27T10:22:32.764Z,46.64
2023-01-27T10:25:08.646Z,47.02
2023-01-27T10:27:36.768Z,47.05
2023-01-27T10:30:17.758Z,45.53
2023-01-27T10:32:45.866Z,46.22
2023-01-27T10:35:38.676Z,46.11
2023-01-27T10:38:22.688Z,46.77
2023-01-27T10:41:04.531Z,47.72
2023-01-27T10:43:50.103Z,45.65
2023-01-27T10:46:24.978Z,46.90
2023-01-27T10:48:54.819Z,46.38
2023-01-27T10:51:29.839Z,45.64
2023-01-27T10:53:58.384Z,44.54
2023-01-27T10:56:35.994Z,44.28
2023-01-27T10:59:29.838Z,44.47
2023-01-27T11:02:09.550Z,46.26
2023-01-27T11:04:41.303Z,44.84
2023-01-27T11:07:07.943Z,44.66
2023-01-27T11:09:36.071Z,45.76
2023-01-27T11:12:10.399Z,45.14
2023-01-27T11:14:47.897Z,46.26
2023-01-27T11:17:17.803Z,45.00
2023-01-27T11:19:46.239Z,45.61
2023-01-27T11:22:19.693Z,44.63
2023-01-27T11:24:48.251Z,45.61
2023-01-27T11:27:35.497Z,45.90
2023-01-27T11:30:09.185Z,46.38
2023-01-27T11:32:41.897Z,44.93
2023-01-27T11:35:13.346Z,46.05
2023-01-27T11:37:48.014Z,44.25
2023-01-27T11:40:30.048Z,44.70
2023-01-27T11:42:56.975Z,46.47
2023-01-27T11:45:23.610Z,45.89
2023-01-27T11:47:57.762Z,47.52
2023-01-27T11:50:25.056Z,47.16
2023-01-27T11:52:55.168Z,45.93
2023-01-27T11:55:26.685Z,45.81
2023-01-27T11:58:21.551Z,44.81
2023-01-27T12:00:58.663Z,46.02
2023-01-27T12:03:37.444Z,44.64
2023-01-27T12:06:06.550Z,46.60
2023-01-27T12:08:36.915Z,46.17
2023-01-27T12:11:27.387Z,46.68
2023-01-27T12:13:58.779Z,46.57
2023-01-27T12:16:47.465Z,46.00
2023-01-27T12:19:24.622Z,46.92
2023-01-27T12:21:53.896Z,45.93
2023-01-27T12:24:40.672Z,45.55
2023-01-27T12:27:07.415Z,45.25
2023-01-27T12:29:40.413Z,44.52
2023-01-27T12:32:14.921Z,45.25
2023-01-27T12:34:43.168Z,44.79
2023-01-27T12:37:20.480Z,44.21
2023-01-27T12:39:50.309Z,45.13
2023-01-27T12:42:40.179Z,45.09
2023-01-27T12:45:18.756Z,44.71
2023-01-27T12:48:01.074Z,44.60
2023-01-27T12:50:32.485Z,43.91
2023-01-27T12:53:15.202Z,43.37
2023-01-27T12:56:10.395Z,43.05
2023-01-27T12:58:44.425Z,43.30
2023-01-27T13:01:20.269Z,43.72
2023-01-27T13:03:50.427Z,42.37
2023-01-27T13:06:20.737Z,43.54
2023-01-27T13:08:47.536Z,43.46
2023-01-27T13:11:14.238Z,45.73
2023-01-27T13:13:48.561Z,43.69
2023-01-27T13:16:17.460Z,44.01
2023-01-27T13:18:52.561Z,43.10
2023-01-27T13:21:20.640Z,42.61
2023-01-27T13:23:47.898Z,43.07
2023-01-27T13:26:16.985Z,43.33
2023-01-27T13:28:54.150Z,44.61
2023-01-27T13:32:05.151Z,44.96
2023-01-27T13:34:48.447Z,45.25
2023-01-27T13:37:36.990Z,45.21
2023-01-27T13:40:17.157Z,45.72
2023-01-27T13:42:48.154Z,46.63
2023-01-27T13:45:16.753Z,46.98
2023-01-27T13:47:49.019Z,47.27
2023-01-27T13:50:30.654Z,47.68
2023-01-27T13:52:57.869Z,46.73
2023-01-27T13:56:01.821Z,46.86
2023-01-27T13:58:44.140Z,46.98
2023-01-27T14:01:48.584Z,46.85
2023-01-27T14:04:30.506Z,45.99
2023-01-27T14:07:05.946Z,44.84
2023-01-27T14:10:31.046Z,46.49
2023-01-27T14:12:57.610Z,45.68
2023-01-27T14:15:36.663Z,45.59
2023-01-27T14:18:21.865Z,46.87
2023-01-27T14:21:44.471Z,46.17
2023-01-27T14:24:40.143Z,46.72
2023-01-27T14:27:14.559Z,45.97
2023-01-27T14:29:50.251Z,47.02
2023-01-27T14:32:16.830Z,48.37
2023-01-27T14:35:02.072Z,47.38
2023-01-27T14:37:30.995Z,47.93
2023-01-27T14:40:17.992Z,49.02
2023-01-27T14:42:53.726Z,48.78
2023-01-27T14:45:45.092Z,49.59
2023-01-27T14:48:39.673Z,48.65
2023-01-27T14:51:33.739Z,48.87
2023-01-27T14:54:31.786Z,48.92
2023-01-27T14:57:05.763Z,48.95
2023-01-27T15:00:00.874Z,49.44
2023-01-27T15:02:33.769Z,49.88
2023-01-27T15:05:10.128Z,50.26
2023-01-27T15:08:03.160Z,50.34
2023-01-27T15:10:33.138Z,50.98
2023-01-27T15:13:37.012Z,50.85
2023-01-27T15:16:25.062Z,50.07
2023-01-27T15:19:07.040Z,51.26
2023-01-27T15:21:49.364Z,51.82
2023-01-27T15:24:25.445Z,52.01
2023-01-27T15:26:52.739Z,51.99
2023-01-27T15:29:22.386Z,52.37
2023-01-27T15:32:17.024Z,53.29
2023-01-27T15:34:52.056Z,52.96
2023-01-27T15:37:25.092Z,52.40
2023-01-27T15:40:04.929Z,52.86
2023-01-27T15:42:51.856Z,53.38
2023-01-27T15:45:37.370Z,53.96
2023-01-27T15:48:10.068Z,53.24
2023-01-27T15:50:38.338Z,53.39
2023-01-27T15:53:12.274Z,53.58
2023-01-27T15:55:38.909Z,53.34
2023-01-27T15:58:09.807Z,53.30
2023-01-27T16:00:40.047Z,53.57
2023-01-27T16:03:19.622Z,53.60
2023-01-27T16:05:48.671Z,53.70
2023-01-27T16:08:15.918Z,53.56
2023-01-27T16:10:42.648Z,53.69
2023-01-27T16:13:21.823Z,53.36
2023-01-27T16:15:48.485Z,54.34
2023-01-27T16:18:14.981Z,53.84
2023-01-27T16:21:00.926Z,54.36
2023-01-27T16:23:46.752Z,54.85
2023-01-27T16:26:34.934Z,54.18
2023-01-27T16:29:12.473Z,54.89
2023-01-27T16:31:39.483Z,54.97
2023-01-27T16:34:06.437Z,55.13
2023-01-27T16:36:34.604Z,54.84
2023-01-27T16:39:20.009Z,54.79
2023-01-27T16:41:52.785Z,55.03
2023-01-27T16:44:20.499Z,55.50
2023-01-27T16:46:54.735Z,54.73
2023-01-27T16:49:30.052Z,55.21
2023-01-27T16:51:57.925Z,54.42
2023-01-27T16:54:36.065Z,55.01
2023-01-27T16:57:05.430Z,55.09
2023-01-27T16:59:35.640Z,54.93
2023-01-27T17:02:07.022Z,54.92
2023-01-27T17:04:33.693Z,55.97
2023-01-27T17:07:12.050Z,55.18
2023-01-27T17:09:56.569Z,55.77
2023-01-27T17:12:26.175Z,55.65
2023-01-27T17:14:53.400Z,56.59
2023-01-27T17:17:20.639Z,56.24
2023-01-27T17:20:03.623Z,56.54
2023-01-27T17:22:37.373Z,56.07
2023-01-27T17:25:06.159Z,55.95
2023-01-27T17:27:34.440Z,56.28
2023-01-27T17:30:03.707Z,55.91
2023-01-27T17:32:37.419Z,55.86
2023-01-27T17:35:23.806Z,56.19
2023-01-27T17:37:50.454Z,55.97
2023-01-27T17:40:21.693Z,56.37
2023-01-27T17:42:48.577Z,56.87
2023-01-27T17:45:22.696Z,57.23
2023-01-27T17:47:49.464Z,56.62
2023-01-27T17:50:20.473Z,57.06
2023-01-27T17:52:52.591Z,57.03
2023-01-27T17:55:22.023Z,56.75
2023-01-27T17:57:50.116Z,56.55
2023-01-27T18:00:21.886Z,56.32
2023-01-27T18:02:51.388Z,56.62
2023-01-27T18:05:22.310Z,57.12
2023-01-27T18:07:48.969Z,56.45
2023-01-27T18:10:27.313Z,56.63
2023-01-27T18:12:53.986Z,56.69
2023-01-27T18:15:42.592Z,56.71
2023-01-27T18:18:23.491Z,57.27
2023-01-27T18:20:59.645Z,56.65
2023-01-27T18:23:31.630Z,57.09
2023-01-27T18:26:17.107Z,57.04
2023-01-27T18:28:43.827Z,56.88
2023-01-27T18:31:17.332Z,56.56
2023-01-27T18:33:44.087Z,57.38
2023-01-27T18:36:22.589Z,56.57
2023-01-27T18:38:50.744Z,57.10
2023-01-27T18:41:25.839Z,56.87
2023-01-27T18:43:52.512Z,57.19
2023-01-27T18:46:19.203Z,56.96
2023-01-27T18:48:45.938Z,57.10
2023-01-27T18:51:13.600Z,57.49
2023-01-27T18:53:40.356Z,56.60
2023-01-27T18:56:07.319Z,57.10
2023-01-27T18:58:36.991Z,57.15
2023-01-27T19:01:03.946Z,56.94
2023-01-27T19:03:30.659Z,57.22
2023-01-27T19:05:57.381Z,56.55
2023-01-27T19:08:24.396Z,57.03
2023-01-27T19:10:51.320Z,57.65
2023-01-27T19:13:17.987Z,57.57
2023-01-27T19:15:47.864Z,56.97
2023-01-27T19:18:26.123Z,57.17
2023-01-27T19:20:52.909Z,57.49
2023-01-27T19:23:20.218Z,57.86
2023-01-27T19:25:48.438Z,58.15
2023-01-27T19:28:22.169Z,57.63
2023-01-27T19:30:48.832Z,58.26
2023-01-27T19:33:22.726Z,57.36
2023-01-27T19:35:53.871Z,57.78
2023-01-27T19:38:20.526Z,57.84
2023-01-27T19:40:47.144Z,57.82
2023-01-27T19:43:13.860Z,57.98
2023-01-27T19:45:41.598Z,58.60
2023-01-27T19:48:21.527Z,58.84
2023-01-27T19:50:48.359Z,57.91
2023-01-27T19:53:15.673Z,57.85
2023-01-27T19:55:42.484Z,58.06
2023-01-27T19:58:25.880Z,58.93
2023-01-27T20:00:53.122Z,58.87
2023-01-27T20:03:19.840Z,58.29
2023-01-27T20:05:46.476Z,58.83
2023-01-27T20:08:15.973Z,58.29
2023-01-27T20:10:42.680Z,58.30
2023-01-27T20:13:16.447Z,58.18
2023-01-27T20:15:43.155Z,58.44
2023-01-27T20:18:12.965Z,58.30
2023-01-27T20:20:39.629Z,59.21
2023-01-27T20:23:06.286Z,59.26
2023-01-27T20:25:32.970Z,58.76
2023-01-27T20:28:00.164Z,58.43
2023-01-27T20:30:28.784Z,58.07
2023-01-27T20:32:56.511Z,57.99
2023-01-27T20:35:23.455Z,58.10
2023-01-27T20:37:50.606Z,59.02
2023-01-27T20:40:24.952Z,57.90
2023-01-27T20:42:52.074Z,58.34
2023-01-27T20:45:18.965Z,57.71
2023-01-27T20:47:49.494Z,58.22
2023-01-27T20:50:16.157Z,58.37
2023-01-27T20:52:42.837Z,58.25
2023-01-27T20:55:10.095Z,57.83
2023-01-27T20:57:37.145Z,58.29
2023-01-27T21:00:03.907Z,58.05
2023-01-27T21:02:30.637Z,58.37
2023-01-27T21:04:57.336Z,58.06
2023-01-27T21:07:24.533Z,58.20
2023-01-27T21:09:51.290Z,57.48
2023-01-27T21:12:17.953Z,58.23
2023-01-27T21:14:44.658Z,57.57
2023-01-27T21:17:11.570Z,58.05
2023-01-27T21:19:38.365Z,57.86
2023-01-27T21:22:05.076Z,58.64
2023-01-27T21:24:31.797Z,58.30
2023-01-27T21:26:58.498Z,58.47
2023-01-27T21:29:25.153Z,57.85
2023-01-27T21:31:51.847Z,58.64
2023-01-27T21:34:18.523Z,58.44
2023-01-27T21:36:45.666Z,57.71
2023-01-27T21:39:12.288Z,57.70
2023-01-27T21:41:38.947Z,58.49
2023-01-27T21:44:06.589Z,57.92
2023-01-27T21:46:33.589Z,57.37
2023-01-27T21:49:00.365Z,58.32
2023-01-27T21:51:27.237Z,58.75
2023-01-27T21:53:53.903Z,58.81
2023-01-27T21:56:20.614Z,58.62
2023-01-27T21:58:47.264Z,57.16
2023-01-27T22:01:13.975Z,56.89
2023-01-27T22:03:40.739Z,56.89
2023-01-27T22:06:07.784Z,57.68
2023-01-27T22:08:35.041Z,58.64
2023-01-27T22:11:11.021Z,58.47
2023-01-27T22:13:39.043Z,58.43
2023-01-27T22:16:06.268Z,58.95
2023-01-27T22:18:35.604Z,58.43
2023-01-27T22:21:02.265Z,57.53
2023-01-27T22:23:29.522Z,58.31
2023-01-27T22:25:56.256Z,57.93
2023-01-27T22:28:23.431Z,58.68
2023-01-27T22:30:50.461Z,59.53
2023-01-27T22:33:17.193Z,59.89
2023-01-27T22:35:43.878Z,59.50
2023-01-27T22:38:10.531Z,59.55
2023-01-27T22:40:37.158Z,60.30
2023-01-27T22:43:03.851Z,60.42
2023-01-27T22:45:30.524Z,60.52
2023-01-27T22:47:57.219Z,60.24
2023-01-27T22:50:23.880Z,60.12
2023-01-27T22:52:51.014Z,60.39
2023-01-27T22:55:18.234Z,60.24
2023-01-27T22:57:45.191Z,60.01
2023-01-27T23:00:12.421Z,60.63
2023-01-27T23:02:39.150Z,60.51
2023-01-27T23:05:06.084Z,61.35
2023-01-27T23:07:32.730Z,60.84
2023-01-27T23:09:59.651Z,61.11
2023-01-27T23:12:26.313Z,61.69
2023-01-27T23:14:53.219Z,61.50
2023-01-27T23:17:19.857Z,61.51
2023-01-27T23:19:46.500Z,60.55
2023-01-27T23:22:13.151Z,60.48
2023-01-27T23:24:39.778Z,61.27
2023-01-27T23:27:06.414Z,61.96
2023-01-27T23:29:33.159Z,61.85
2023-01-27T23:32:00.080Z,62.21
2023-01-27T23:34:26.889Z,61.72
2023-01-27T23:36:53.631Z,61.01
2023-01-27T23:39:20.375Z,60.26
2023-01-27T23:41:47.019Z,60.30
2023-01-27T23:44:13.673Z,59.99
2023-01-27T23:46:40.476Z,60.49
2023-01-27T23:49:07.160Z,60.08
2023-01-27T23:51:33.816Z,60.35
2023-01-27T23:54:00.434Z,60.25
2023-01-27T23:56:27.094Z,60.33
2023-01-27T23:58:53.764Z,59.77
